CDT,Max TemperatureF,Mean TemperatureF,Min TemperatureF,Max Dew PointF,MeanDew PointF,Min DewpointF,Max Humidity, Mean Humidity, Min Humidity, Max Sea Level PressureIn, Mean Sea Level PressureIn, Min Sea Level PressureIn, Max VisibilityMiles, Mean VisibilityMiles, Min VisibilityMiles, Max Wind SpeedMPH, Mean Wind SpeedMPH, Max Gust SpeedMPH,PrecipitationIn, CloudCover, Events, WindDirDegrees
2012-10-1,71,61,51,55,49,43,88,66,40,30.14,30.08,29.99,10,10,10,31,13,37,0.25,1,,355
2012-10-2,73,57,41,45,42,36,81,59,33,30.13,30.03,29.90,10,10,10,14,7,18,0.00,0,,217
2012-10-3,84,66,48,57,50,43,87,61,35,29.91,29.87,29.81,10,10,10,23,11,26,0.00,0,,182
2012-10-4,64,55,46,54,34,28,72,47,31,30.32,30.22,29.92,10,10,10,33,17,44,0.00,4,,28
2012-10-5,53,48,42,34,32,27,66,54,41,30.31,30.24,30.19,10,10,10,20,10,26,0.00,5,,62
2012-10-6,42,40,39,34,31,28,81,69,57,30.32,30.29,30.27,10,10,8,14,10,18,0.00,8,,79
2012-10-7,51,43,35,34,31,28,81,65,44,30.29,30.19,30.12,10,10,7,16,7,20,0.00,6,,178
2012-10-8,69,50,30,43,34,25,86,58,31,30.06,29.94,29.88,10,10,10,24,11,30,0.00,0,,204
2012-10-9,66,50,35,43,36,30,81,58,39,30.20,29.98,29.78,10,10,8,28,12,34,0.00,0,,10
2012-10-10,66,50,33,39,33,27,87,57,32,30.29,30.15,30.06,10,10,10,20,7,26,0.00,0,,190
2012-10-11,87,66,46,54,45,37,82,57,23,30.14,30.02,29.95,10,10,8,23,14,29,0.00,0,,194
2012-10-12,57,52,46,46,36,28,72,55,47,30.26,30.14,29.94,10,10,10,18,13,24,0.00,6,,59
2012-10-13,75,65,55,61,49,36,88,61,24,29.94,29.83,29.73,10,10,5,33,11,43,0.18,3,Thunderstorm,245
2012-10-14,73,62,50,45,41,37,63,50,29,30.22,30.11,29.87,10,10,10,23,16,30,0.00,0,,311
2012-10-15,84,65,46,46,39,36,71,48,18,30.16,29.98,29.82,10,10,10,20,11,25,0.00,0,,220
2012-10-16,80,62,44,46,39,34,76,47,21,29.81,29.70,29.50,10,10,10,17,10,23,0.00,0,,160
2012-10-17,66,52,37,45,30,19,71,39,20,29.92,29.72,29.45,10,10,9,39,19,48,0.00,0,,343
2012-10-18,62,48,33,28,23,18,65,42,20,30.09,30.05,30.00,10,10,10,31,12,38,0.00,0,,309
2012-10-19,73,53,33,43,26,19,60,39,18,30.07,29.92,29.83,10,10,10,15,10,21,0.00,0,,253
2012-10-20,82,60,37,43,35,27,71,45,19,29.83,29.77,29.71,10,10,10,14,8,,0.00,0,,174
2012-10-21,87,62,37,41,33,27,76,42,13,29.76,29.70,29.67,10,10,10,16,7,21,0.00,0,,247
2012-10-22,68,56,44,50,43,34,82,66,48,29.95,29.84,29.76,10,10,10,17,8,20,0.00,3,,344
2012-10-23,91,68,44,46,37,28,82,41,12,29.81,29.75,29.72,10,10,10,26,11,31,0.00,0,,210
2012-10-24,68,59,50,48,41,32,71,53,37,29.86,29.74,29.61,10,10,9,17,11,21,0.00,0,,253
2012-10-25,51,42,33,45,30,19,82,60,46,30.32,30.11,29.65,10,10,9,33,23,44,0.00,5,,12
2012-10-26,44,37,28,28,23,18,70,58,42,30.51,30.41,30.30,10,10,10,17,10,21,0.00,4,,34
2012-10-27,53,37,21,28,21,12,80,55,28,30.39,30.24,30.13,10,10,10,22,7,29,0.00,0,,174
2012-10-28,64,45,26,28,22,16,70,45,20,30.24,30.16,30.09,10,10,10,21,8,28,0.00,0,,207
2012-10-29,71,52,33,34,28,19,61,44,25,30.18,30.11,30.06,10,10,10,18,11,23,0.00,0,,204
2012-10-30,78,56,35,39,33,27,70,43,21,30.07,30.04,29.98,10,10,10,24,11,29,0.00,0,,327
2012-10-31,80,60,39,43,33,28,75,48,20,30.11,30.07,30.02,10,10,10,13,5,17,0.00,0,,288